createdAt,value
2022-11-05T00:01:16.114Z,21.02
2022-11-05T00:04:17.580Z,23.52
2022-11-05T00:07:25.803Z,38.05
2022-11-05T00:10:30.196Z,13.45
2022-11-05T00:13:31.564Z,6.88
2022-11-05T00:16:32.897Z,11.60
2022-11-05T00:19:34.226Z,13.75
2022-11-05T00:22:35.719Z,12.15
2022-11-05T00:25:37.044Z,14.95
2022-11-05T00:28:40.158Z,10.70
2022-11-05T00:31:41.498Z,14.57
2022-11-05T00:34:43.091Z,12.13
2022-11-05T00:37:49.836Z,12.73
2022-11-05T00:40:51.834Z,15.00
2022-11-05T00:43:53.172Z,12.38
2022-11-05T00:46:59.633Z,9.48
2022-11-05T00:50:01.316Z,11.02
2022-11-05T00:53:03.434Z,11.02
2022-11-05T00:56:04.864Z,12.77
2022-11-05T00:59:06.210Z,12.63
2022-11-05T01:02:07.725Z,9.88
2022-11-05T01:05:09.138Z,15.10
2022-11-05T01:08:11.937Z,15.73
2022-11-05T01:11:15.842Z,11.70
2022-11-05T01:14:17.197Z,11.20
2022-11-05T01:17:18.547Z,10.15
2022-11-05T01:20:19.907Z,20.55
2022-11-05T01:23:21.553Z,19.58
2022-11-05T01:26:23.180Z,14.07
2022-11-05T01:29:24.574Z,11.63
2022-11-05T01:32:25.952Z,11.65
2022-11-05T01:35:27.288Z,12.85
2022-11-05T01:38:28.620Z,14.40
2022-11-05T01:41:30.292Z,16.77
2022-11-05T01:44:53.245Z,17.20
2022-11-05T01:47:57.663Z,19.07
2022-11-05T01:51:02.652Z,14.05
2022-11-05T01:54:09.744Z,14.63
2022-11-05T01:57:11.609Z,19.13
2022-11-05T02:00:13.464Z,16.67
2022-11-05T02:03:17.793Z,15.20
2022-11-05T02:06:19.705Z,20.00
2022-11-05T02:09:30.704Z,17.58
2022-11-05T02:12:33.402Z,13.05
2022-11-05T02:16:19.654Z,13.33
2022-11-05T02:19:55.175Z,11.48
2022-11-05T02:23:25.836Z,13.20
2022-11-05T02:26:45.089Z,15.88
2022-11-05T02:30:05.420Z,10.45
2022-11-05T02:33:15.378Z,10.40
2022-11-05T02:36:42.059Z,12.70
2022-11-05T02:40:08.310Z,10.68
2022-11-05T02:43:53.630Z,9.45
2022-11-05T02:47:18.298Z,12.25
2022-11-05T02:50:30.247Z,12.50
2022-11-05T02:53:41.659Z,10.70
2022-11-05T02:56:48.043Z,10.20
2022-11-05T02:59:49.370Z,13.80
2022-11-05T03:02:50.897Z,8.43
2022-11-05T03:06:27.048Z,10.90
2022-11-05T03:09:43.607Z,19.23
2022-11-05T03:12:54.749Z,9.63
2022-11-05T03:16:04.502Z,12.93
2022-11-05T03:19:20.200Z,12.18
2022-11-05T03:22:28.415Z,9.15
2022-11-05T03:25:30.951Z,12.27
2022-11-05T03:28:36.413Z,8.33
2022-11-05T03:31:40.834Z,14.10
2022-11-05T03:34:47.017Z,10.98
2022-11-05T03:37:51.181Z,7.35
2022-11-05T03:40:56.880Z,9.13
2022-11-05T03:44:03.564Z,9.75
2022-11-05T03:47:10.337Z,10.95
2022-11-05T03:50:20.370Z,11.50
2022-11-05T03:53:27.844Z,12.55
2022-11-05T03:56:34.061Z,7.60
2022-11-05T03:59:44.821Z,9.23
2022-11-05T04:02:46.318Z,8.98
2022-11-05T04:05:48.185Z,8.27
2022-11-05T04:08:49.533Z,7.10
2022-11-05T04:11:50.933Z,8.45
2022-11-05T04:14:52.289Z,7.50
2022-11-05T04:17:53.602Z,8.07
2022-11-05T04:20:54.930Z,10.45
2022-11-05T04:23:56.341Z,13.68
2022-11-05T04:26:57.662Z,9.88
2022-11-05T04:29:59.066Z,12.35
2022-11-05T04:33:07.012Z,11.05
2022-11-05T04:36:08.586Z,7.72
2022-11-05T04:39:10.067Z,7.05
2022-11-05T04:42:11.391Z,6.55
2022-11-05T04:45:12.791Z,7.93
2022-11-05T04:48:14.126Z,8.27
2022-11-05T04:51:15.497Z,6.45
2022-11-05T04:54:16.831Z,7.15
2022-11-05T04:57:18.210Z,6.78
2022-11-05T05:00:21.347Z,5.60
2022-11-05T05:03:22.655Z,11.82
2022-11-05T05:06:24.016Z,12.35
2022-11-05T05:09:25.366Z,7.40
2022-11-05T05:12:26.697Z,8.05
2022-11-05T05:15:28.033Z,7.07
2022-11-05T05:18:29.373Z,7.65
2022-11-05T05:21:30.703Z,8.45
2022-11-05T05:24:32.039Z,10.48
2022-11-05T05:27:33.401Z,11.65
2022-11-05T05:30:34.763Z,10.30
2022-11-05T05:33:36.164Z,11.20
2022-11-05T05:36:37.737Z,10.35
2022-11-05T05:39:39.077Z,17.08
2022-11-05T05:42:43.326Z,44.72
2022-11-05T05:45:45.009Z,107.85
2022-11-05T05:48:51.130Z,105.35
2022-11-05T05:51:52.460Z,123.38
2022-11-05T05:54:53.789Z,121.55
2022-11-05T05:57:55.142Z,57.30
2022-11-05T06:01:00.581Z,19.35
2022-11-05T06:04:02.172Z,16.70
2022-11-05T06:07:03.557Z,20.88
2022-11-05T06:10:05.477Z,33.42
2022-11-05T06:13:06.845Z,16.90
2022-11-05T06:16:09.524Z,13.32
2022-11-05T06:19:10.946Z,11.47
2022-11-05T06:22:12.422Z,9.95
2022-11-05T06:25:13.894Z,11.68
2022-11-05T06:28:15.236Z,10.48
2022-11-05T06:31:17.166Z,21.83
2022-11-05T06:34:18.529Z,43.08
2022-11-05T06:37:19.874Z,14.20
2022-11-05T06:40:21.216Z,14.43
2022-11-05T06:43:22.585Z,9.98
2022-11-05T06:46:23.921Z,16.42
2022-11-05T06:49:25.268Z,12.15
2022-11-05T06:52:26.626Z,11.45
2022-11-05T06:55:30.150Z,14.50
2022-11-05T07:01:33.466Z,45.45
2022-11-05T07:04:34.894Z,13.02
2022-11-05T07:07:40.839Z,28.33
2022-11-05T07:10:42.257Z,27.58
2022-11-05T07:13:43.591Z,18.90
2022-11-05T07:16:45.043Z,34.80
2022-11-05T07:19:46.384Z,44.03
2022-11-05T07:22:47.762Z,20.10
2022-11-05T07:25:49.093Z,17.75
2022-11-05T07:28:50.436Z,17.73
2022-11-05T07:31:51.805Z,15.07
2022-11-05T07:34:53.152Z,14.45
2022-11-05T07:37:55.315Z,11.70
2022-11-05T07:40:59.342Z,9.25
2022-11-05T07:44:00.729Z,21.17
2022-11-05T07:47:02.068Z,20.65
2022-11-05T07:50:03.690Z,10.70
2022-11-05T07:53:12.612Z,13.57
2022-11-05T07:56:15.214Z,13.13
2022-11-05T07:59:16.534Z,9.45
2022-11-05T08:02:18.032Z,12.55
2022-11-05T08:05:19.462Z,11.70
2022-11-05T08:08:20.840Z,12.85
2022-11-05T08:11:22.197Z,8.15
2022-11-05T08:14:23.578Z,9.93
2022-11-05T08:17:24.937Z,5.38
2022-11-05T08:20:26.556Z,5.97
2022-11-05T08:23:29.282Z,5.82
2022-11-05T08:26:30.637Z,5.50
2022-11-05T08:29:31.996Z,6.53
2022-11-05T08:32:34.030Z,5.72
2022-11-05T08:35:37.157Z,9.25
2022-11-05T08:38:38.464Z,4.00
2022-11-05T08:41:40.053Z,4.70
2022-11-05T08:44:41.439Z,5.75
2022-11-05T08:47:42.899Z,6.60
2022-11-05T08:50:46.008Z,4.72
2022-11-05T08:53:47.361Z,4.72
2022-11-05T08:56:48.734Z,3.42
2022-11-05T08:59:50.274Z,6.07
2022-11-05T09:02:51.612Z,4.40
2022-11-05T09:05:52.930Z,2.13
2022-11-05T09:08:54.515Z,4.43
2022-11-05T09:12:11.656Z,4.95
2022-11-05T09:15:13.438Z,4.28
2022-11-05T09:18:14.909Z,4.63
2022-11-05T09:21:17.106Z,2.67
2022-11-05T09:24:18.622Z,4.57
2022-11-05T09:27:19.962Z,4.43
2022-11-05T09:30:21.298Z,4.88
2022-11-05T09:33:24.880Z,5.00
2022-11-05T09:36:26.211Z,4.50
2022-11-05T09:39:27.614Z,5.50
2022-11-05T09:42:34.604Z,4.50
2022-11-05T09:45:36.146Z,6.95
2022-11-05T09:48:38.579Z,4.60
2022-11-05T09:51:40.766Z,3.72
2022-11-05T09:54:42.353Z,4.05
2022-11-05T09:57:48.957Z,4.95
2022-11-05T10:00:50.666Z,5.25
2022-11-05T10:03:56.672Z,3.67
2022-11-05T10:07:01.508Z,4.00
2022-11-05T10:10:06.770Z,4.93
2022-11-05T10:13:29.693Z,3.67
2022-11-05T10:16:41.044Z,3.70
2022-11-05T10:20:00.185Z,2.22
2022-11-05T10:23:21.925Z,6.32
2022-11-05T10:26:26.246Z,5.03
2022-11-05T10:29:30.260Z,5.35
2022-11-05T10:32:35.726Z,5.28
2022-11-05T10:35:47.295Z,3.92
2022-11-05T10:38:49.417Z,6.43
2022-11-05T10:42:14.889Z,10.32
2022-11-05T10:45:31.604Z,5.88
2022-11-05T10:49:12.032Z,5.55
2022-11-05T10:52:26.398Z,6.63
2022-11-05T10:55:34.699Z,5.60
2022-11-05T10:58:36.040Z,6.97
2022-11-05T11:01:37.604Z,4.90
2022-11-05T11:04:39.762Z,5.80
2022-11-05T11:07:41.130Z,4.78
2022-11-05T11:10:49.939Z,7.15
2022-11-05T11:14:19.485Z,5.32
2022-11-05T11:17:27.505Z,3.35
2022-11-05T11:20:31.286Z,4.43
2022-11-05T11:23:40.932Z,8.52
2022-11-05T11:26:42.384Z,4.25
2022-11-05T11:29:49.526Z,6.32
2022-11-05T11:33:05.700Z,3.75
2022-11-05T11:36:10.614Z,5.13
2022-11-05T11:39:18.778Z,5.60
2022-11-05T11:42:39.297Z,8.10
2022-11-05T11:45:50.911Z,3.65
2022-11-05T11:48:52.297Z,4.97
2022-11-05T11:52:04.993Z,3.67
2022-11-05T11:55:09.344Z,6.03
2022-11-05T11:58:11.143Z,4.18
2022-11-05T12:01:24.717Z,6.32
2022-11-05T12:07:42.625Z,5.85
2022-11-05T12:10:52.954Z,5.03
2022-11-05T12:14:27.974Z,4.78
2022-11-05T12:17:49.859Z,5.05
2022-11-05T12:20:58.463Z,6.35
2022-11-05T12:24:18.298Z,8.77
2022-11-05T12:27:32.443Z,6.60
2022-11-05T12:30:47.104Z,5.60
2022-11-05T12:33:54.964Z,6.38
2022-11-05T12:37:30.120Z,3.40
2022-11-05T12:40:34.183Z,6.63
2022-11-05T12:43:44.603Z,4.07
2022-11-05T12:47:03.271Z,6.30
2022-11-05T12:50:29.639Z,5.15
2022-11-05T12:53:52.144Z,9.82
2022-11-05T12:56:57.804Z,5.68
2022-11-05T13:00:21.670Z,4.85
2022-11-05T13:03:44.211Z,3.30
2022-11-05T13:06:52.228Z,8.32
2022-11-05T13:10:06.129Z,4.43
2022-11-05T13:13:19.072Z,4.47
2022-11-05T13:16:49.040Z,7.75
2022-11-05T13:19:56.369Z,3.03
2022-11-05T13:23:17.928Z,9.32
2022-11-05T13:26:37.454Z,3.30
2022-11-05T13:29:48.431Z,5.13
2022-11-05T13:32:59.881Z,3.92
2022-11-05T13:36:19.856Z,4.90
2022-11-05T13:39:26.789Z,6.53
2022-11-05T13:42:37.141Z,4.95
2022-11-05T13:46:05.420Z,3.85
2022-11-05T13:49:43.769Z,4.22
2022-11-05T13:52:57.166Z,6.30
2022-11-05T13:56:13.295Z,6.45
2022-11-05T13:59:33.895Z,2.30
2022-11-05T14:02:40.321Z,4.47
2022-11-05T14:05:43.192Z,4.88
2022-11-05T14:08:46.040Z,6.55
2022-11-05T14:11:56.463Z,3.22
2022-11-05T14:15:17.681Z,4.78
2022-11-05T14:18:38.066Z,4.25
2022-11-05T14:21:48.703Z,9.52
2022-11-05T14:24:50.129Z,6.90
2022-11-05T14:27:52.603Z,12.80
2022-11-05T14:30:54.074Z,14.70
2022-11-05T14:34:03.491Z,9.13
2022-11-05T14:37:33.187Z,8.25
2022-11-05T14:40:43.335Z,6.15
2022-11-05T14:43:58.107Z,7.80
2022-11-05T14:47:19.894Z,6.50
2022-11-05T14:50:33.386Z,6.28
2022-11-05T14:53:37.799Z,4.13
2022-11-05T14:56:56.081Z,4.25
2022-11-05T14:59:58.072Z,6.18
2022-11-05T15:03:24.556Z,6.55
2022-11-05T15:06:27.793Z,7.28
2022-11-05T15:09:29.064Z,4.78
2022-11-05T15:12:47.464Z,6.07
2022-11-05T15:15:49.746Z,4.78
2022-11-05T15:18:53.793Z,4.43
2022-11-05T15:21:58.760Z,3.80
2022-11-05T15:25:00.377Z,6.57
2022-11-05T15:28:14.485Z,10.07
2022-11-05T15:31:15.826Z,23.77
2022-11-05T15:34:31.718Z,37.58
2022-11-05T15:37:33.826Z,60.30
2022-11-05T15:40:35.280Z,14.05
2022-11-05T15:43:48.077Z,64.78
2022-11-05T15:47:04.941Z,16.75
2022-11-05T15:50:15.367Z,14.13
2022-11-05T15:53:44.190Z,8.75
2022-11-05T15:56:49.847Z,6.78
2022-11-05T15:59:51.606Z,7.88
2022-11-05T16:03:15.527Z,8.48
2022-11-05T16:06:17.178Z,5.22
2022-11-05T16:09:22.889Z,8.25
2022-11-05T16:12:35.955Z,6.97
2022-11-05T16:15:37.346Z,8.07
2022-11-05T16:18:39.048Z,5.45
2022-11-05T16:21:53.896Z,4.57
2022-11-05T16:24:55.241Z,4.45
2022-11-05T16:27:58.305Z,7.15
2022-11-05T16:31:03.027Z,6.18
2022-11-05T16:34:05.063Z,6.18
2022-11-05T16:37:10.500Z,7.00
2022-11-05T16:40:21.023Z,6.63
2022-11-05T16:43:24.609Z,5.63
2022-11-05T16:46:28.269Z,7.32
2022-11-05T16:49:29.629Z,8.57
2022-11-05T16:52:30.938Z,7.32
2022-11-05T16:55:33.457Z,6.50
2022-11-05T16:58:34.824Z,7.77
2022-11-05T17:01:39.160Z,8.48
2022-11-05T17:04:40.634Z,5.35
2022-11-05T17:07:42.142Z,9.45
2022-11-05T17:10:43.653Z,13.25
2022-11-05T17:13:45.576Z,9.45
2022-11-05T17:16:47.022Z,10.98
2022-11-05T17:19:48.391Z,14.10
2022-11-05T17:22:49.769Z,13.73
2022-11-05T17:25:54.069Z,9.05
2022-11-05T17:28:55.415Z,6.25
2022-11-05T17:31:56.775Z,6.45
2022-11-05T17:34:58.134Z,5.97
2022-11-05T17:37:59.491Z,8.30
2022-11-05T17:41:01.068Z,6.07
2022-11-05T17:44:02.477Z,8.07
2022-11-05T17:47:03.893Z,11.27
2022-11-05T17:50:06.983Z,11.05
2022-11-05T17:53:08.916Z,10.70
2022-11-05T17:56:22.167Z,8.57
2022-11-05T17:59:29.433Z,9.45
2022-11-05T18:02:30.875Z,9.07
2022-11-05T18:05:34.383Z,7.97
2022-11-05T18:08:35.860Z,10.30
2022-11-05T18:11:38.780Z,7.97
2022-11-05T18:14:40.099Z,10.60
2022-11-05T18:17:42.768Z,8.73
2022-11-05T18:20:44.338Z,10.25
2022-11-05T18:23:45.785Z,11.45
2022-11-05T18:26:47.540Z,15.05
2022-11-05T18:29:48.875Z,11.10
2022-11-05T18:32:50.270Z,11.15
2022-11-05T18:35:51.678Z,9.75
2022-11-05T18:38:54.013Z,9.10
2022-11-05T18:41:55.449Z,7.55
2022-11-05T18:44:56.785Z,10.48
2022-11-05T18:47:59.902Z,9.75
2022-11-05T18:51:07.301Z,10.85
2022-11-05T18:54:08.746Z,10.55
2022-11-05T18:57:10.203Z,13.77
2022-11-05T19:00:12.240Z,8.30
2022-11-05T19:03:13.585Z,9.18
2022-11-05T19:06:14.951Z,10.05
2022-11-05T19:09:16.362Z,9.18
2022-11-05T19:12:17.732Z,8.25
2022-11-05T19:15:19.217Z,9.77
2022-11-05T19:18:20.631Z,10.90
2022-11-05T19:21:25.004Z,11.90
2022-11-05T19:24:26.480Z,8.73
2022-11-05T19:27:27.914Z,12.00
2022-11-05T19:30:29.471Z,10.05
2022-11-05T19:33:31.758Z,7.88
2022-11-05T19:36:33.519Z,8.00
2022-11-05T19:39:35.762Z,8.38
2022-11-05T19:42:37.143Z,10.40
2022-11-05T19:45:44.775Z,7.13
2022-11-05T19:48:46.589Z,9.27
2022-11-05T19:51:47.940Z,9.43
2022-11-05T19:54:49.278Z,8.02
2022-11-05T19:57:50.632Z,8.88
2022-11-05T20:00:55.232Z,7.45
2022-11-05T20:03:58.257Z,7.80
2022-11-05T20:06:59.681Z,10.07
2022-11-05T20:10:01.272Z,12.52
2022-11-05T20:13:02.646Z,11.80
2022-11-05T20:16:04.949Z,12.70
2022-11-05T20:19:08.810Z,8.98
2022-11-05T20:22:10.155Z,10.60
2022-11-05T20:25:12.401Z,10.43
2022-11-05T20:28:14.184Z,10.68
2022-11-05T20:31:17.233Z,9.90
2022-11-05T20:34:18.567Z,10.90
2022-11-05T20:37:19.962Z,11.48
2022-11-05T20:40:21.393Z,11.43
2022-11-05T20:43:27.588Z,12.13
2022-11-05T20:46:31.586Z,11.50
2022-11-05T20:49:32.995Z,21.77
2022-11-05T20:52:34.325Z,11.63
2022-11-05T20:55:46.798Z,11.10
2022-11-05T20:58:48.699Z,9.75
2022-11-05T21:01:50.696Z,11.60
2022-11-05T21:04:52.154Z,13.15
2022-11-05T21:07:53.588Z,15.18
2022-11-05T21:10:56.272Z,13.90
2022-11-05T21:13:57.617Z,11.03
2022-11-05T21:16:58.954Z,11.57
2022-11-05T21:20:00.291Z,12.88
2022-11-05T21:23:01.667Z,12.45
2022-11-05T21:26:08.263Z,14.70
2022-11-05T21:29:09.640Z,11.88
2022-11-05T21:32:11.032Z,14.13
2022-11-05T21:35:12.419Z,14.48
2022-11-05T21:38:16.440Z,11.70
2022-11-05T21:41:17.976Z,13.85
2022-11-05T21:44:19.364Z,13.80
2022-11-05T21:47:20.772Z,18.77
2022-11-05T21:50:22.666Z,11.48
2022-11-05T21:53:24.484Z,13.68
2022-11-05T21:56:26.693Z,12.82
2022-11-05T21:59:28.557Z,11.52
2022-11-05T22:02:30.052Z,9.75
2022-11-05T22:05:31.673Z,10.13
2022-11-05T22:08:33.020Z,13.70
2022-11-05T22:11:35.788Z,13.40
2022-11-05T22:14:37.678Z,10.65
2022-11-05T22:17:42.636Z,13.20
2022-11-05T22:20:47.874Z,10.90
2022-11-05T22:23:49.281Z,14.40
2022-11-05T22:26:50.783Z,11.23
2022-11-05T22:29:52.154Z,13.45
2022-11-05T22:32:53.562Z,15.57
2022-11-05T22:35:54.919Z,12.05
2022-11-05T22:38:56.274Z,12.45
2022-11-05T22:41:58.459Z,13.25
2022-11-05T22:44:59.855Z,14.07
2022-11-05T22:48:06.397Z,11.80
2022-11-05T22:51:13.108Z,10.55
2022-11-05T22:54:14.482Z,10.88
2022-11-05T22:57:15.847Z,11.05
2022-11-05T23:00:17.547Z,10.35
2022-11-05T23:03:18.935Z,11.75
2022-11-05T23:06:31.819Z,12.68
2022-11-05T23:09:35.147Z,9.07
2022-11-05T23:15:38.083Z,8.77
2022-11-05T23:18:39.520Z,9.93
2022-11-05T23:21:40.887Z,11.93
2022-11-05T23:24:42.388Z,9.18
2022-11-05T23:27:44.996Z,9.32
2022-11-05T23:30:46.485Z,9.30
2022-11-05T23:33:48.665Z,9.10
2022-11-05T23:36:50.048Z,9.95
2022-11-05T23:39:51.489Z,7.53
2022-11-05T23:42:53.419Z,11.15
2022-11-05T23:45:58.483Z,7.40
2022-11-05T23:48:59.828Z,8.00
2022-11-05T23:52:01.197Z,7.93
2022-11-05T23:55:02.821Z,9.52
2022-11-05T23:58:04.186Z,8.55
